KLAW/LAW METAR and TAF weather

Enter ICAO airport designator
Station Type Date Time Source
KLAW METAR 2019/08/19 11:53 UTC NOAA

KLAW 191153Z AUTO 13005KT 10SM CLR 25/21 A2994 RMK AO2 SLP122 T02500211 10300 20250 53018


Station Type Date Time Source
KLAW Decoded METAR 2019/08/19 11:53 UTC NOAA

Station name not available
Aug 19, 2019 - 07:53 AM EDT / 2019.08.19 1153 UTC
Wind: from the SE (130 degrees) at 6 MPH (5 KT):0
Visibility: 10 mile(s):0
Sky conditions: clear
Temperature: 77.0 F (25.0 C)
Dew Point: 70.0 F (21.1 C)
Relative Humidity: 78%
Pressure (altimeter): 29.94 in. Hg (1013 hPa)
Pressure tendency: 0.05 inches (1.8 hPa) higher than three hours ago
ob: KLAW 191153Z AUTO 13005KT 10SM CLR 25/21 A2994 RMK AO2 SLP122 T02500211 10300 20250 53018
cycle: 12

Station Type Date Time Source
KLAW TAF 2019/08/19 12:34 UTC NOAA

TAF KLAW 191132Z 1912/2012 17010KT P6SM FEW080 SCT250

Example: see airport list